Terminal Aerodrome Forecast
Issued by NWS

Home | Current Version | Previous Version | Text Only | Print | Product List | Glossary On
Versions: 1 2 3 4 5 6 7 8 9 10 11 12 13
000
FTUS42 KTBW 271740
TAFLAL
TAF
KLAL 271740Z 2718/2818 06009KT P6SM SCT040
     FM271900 09010G15KT P6SM SCT040
     FM280100 09007KT P6SM FEW040
     FM280600 VRB02KT P6SM SCT030
     FM281200 05005KT P6SM SCT050=

USA.gov is the U.S. government's official web portal to all federal, state and local government web resources and services.